sensor_id;sensor_type;location;lat;lon;timestamp;P1;durP1;ratioP1;P2;durP2;ratioP2
71730;SDS011;65964;43.496;3.710;2023-03-04T00:01:10;45.28;;;24.35;;
71730;SDS011;65964;43.496;3.710;2023-03-04T00:03:36;35.65;;;20.77;;
71730;SDS011;65964;43.496;3.710;2023-03-04T00:06:02;37.40;;;21.63;;
71730;SDS011;65964;43.496;3.710;2023-03-04T00:08:29;35.92;;;20.80;;
71730;SDS011;65964;43.496;3.710;2023-03-04T00:10:55;33.72;;;20.60;;
71730;SDS011;65964;43.496;3.710;2023-03-04T00:13:21;41.38;;;24.00;;
71730;SDS011;65964;43.496;3.710;2023-03-04T00:15:48;42.72;;;23.50;;
71730;SDS011;65964;43.496;3.710;2023-03-04T00:18:14;54.95;;;29.63;;
71730;SDS011;65964;43.496;3.710;2023-03-04T00:20:40;39.78;;;23.00;;
71730;SDS011;65964;43.496;3.710;2023-03-04T00:23:06;33.40;;;20.73;;
71730;SDS011;65964;43.496;3.710;2023-03-04T00:25:32;36.97;;;20.20;;
71730;SDS011;65964;43.496;3.710;2023-03-04T00:27:58;34.97;;;20.58;;
71730;SDS011;65964;43.496;3.710;2023-03-04T00:30:25;36.67;;;19.95;;
71730;SDS011;65964;43.496;3.710;2023-03-04T00:32:51;32.15;;;19.95;;
71730;SDS011;65964;43.496;3.710;2023-03-04T00:35:17;34.50;;;20.48;;
71730;SDS011;65964;43.496;3.710;2023-03-04T00:37:43;36.20;;;19.98;;
71730;SDS011;65964;43.496;3.710;2023-03-04T00:40:09;34.17;;;20.13;;
71730;SDS011;65964;43.496;3.710;2023-03-04T00:42:35;34.15;;;19.10;;
71730;SDS011;65964;43.496;3.710;2023-03-04T00:45:01;38.90;;;21.10;;
71730;SDS011;65964;43.496;3.710;2023-03-04T00:47:27;37.30;;;21.17;;
71730;SDS011;65964;43.496;3.710;2023-03-04T00:49:53;36.72;;;21.23;;
71730;SDS011;65964;43.496;3.710;2023-03-04T00:52:19;35.65;;;20.10;;
71730;SDS011;65964;43.496;3.710;2023-03-04T00:54:45;36.47;;;20.52;;
71730;SDS011;65964;43.496;3.710;2023-03-04T00:57:11;36.00;;;20.30;;
71730;SDS011;65964;43.496;3.710;2023-03-04T00:59:37;38.55;;;21.30;;
71730;SDS011;65964;43.496;3.710;2023-03-04T01:02:04;38.72;;;21.02;;
71730;SDS011;65964;43.496;3.710;2023-03-04T01:04:30;34.88;;;20.27;;
71730;SDS011;65964;43.496;3.710;2023-03-04T01:06:56;36.05;;;20.85;;
71730;SDS011;65964;43.496;3.710;2023-03-04T01:09:22;39.47;;;21.90;;
71730;SDS011;65964;43.496;3.710;2023-03-04T01:11:50;38.22;;;21.95;;
71730;SDS011;65964;43.496;3.710;2023-03-04T01:14:16;38.13;;;22.17;;
71730;SDS011;65964;43.496;3.710;2023-03-04T01:16:43;36.95;;;20.73;;
71730;SDS011;65964;43.496;3.710;2023-03-04T01:19:09;38.33;;;21.55;;
71730;SDS011;65964;43.496;3.710;2023-03-04T01:21:35;38.47;;;21.48;;
71730;SDS011;65964;43.496;3.710;2023-03-04T01:24:01;35.95;;;20.88;;
71730;SDS011;65964;43.496;3.710;2023-03-04T01:26:27;39.42;;;21.13;;
71730;SDS011;65964;43.496;3.710;2023-03-04T01:28:53;38.25;;;22.30;;
71730;SDS011;65964;43.496;3.710;2023-03-04T01:31:19;37.60;;;21.75;;
71730;SDS011;65964;43.496;3.710;2023-03-04T01:33:45;38.80;;;21.45;;
71730;SDS011;65964;43.496;3.710;2023-03-04T01:36:11;34.72;;;20.40;;
71730;SDS011;65964;43.496;3.710;2023-03-04T01:38:37;36.13;;;20.77;;
71730;SDS011;65964;43.496;3.710;2023-03-04T01:41:03;38.28;;;21.70;;
71730;SDS011;65964;43.496;3.710;2023-03-04T01:43:31;38.05;;;21.48;;
71730;SDS011;65964;43.496;3.710;2023-03-04T01:45:58;38.72;;;21.92;;
71730;SDS011;65964;43.496;3.710;2023-03-04T01:48:31;41.60;;;22.02;;
71730;SDS011;65964;43.496;3.710;2023-03-04T01:51:00;38.03;;;21.33;;
71730;SDS011;65964;43.496;3.710;2023-03-04T01:53:29;40.92;;;22.13;;
71730;SDS011;65964;43.496;3.710;2023-03-04T01:55:57;39.47;;;22.60;;
71730;SDS011;65964;43.496;3.710;2023-03-04T01:58:27;37.63;;;21.60;;
71730;SDS011;65964;43.496;3.710;2023-03-04T02:00:53;39.42;;;21.90;;
71730;SDS011;65964;43.496;3.710;2023-03-04T02:03:20;43.92;;;22.55;;
71730;SDS011;65964;43.496;3.710;2023-03-04T02:05:48;37.80;;;20.88;;
71730;SDS011;65964;43.496;3.710;2023-03-04T02:08:14;40.22;;;22.55;;
71730;SDS011;65964;43.496;3.710;2023-03-04T02:10:41;39.15;;;21.45;;
71730;SDS011;65964;43.496;3.710;2023-03-04T02:13:08;40.03;;;21.88;;
71730;SDS011;65964;43.496;3.710;2023-03-04T02:15:34;36.65;;;21.73;;
71730;SDS011;65964;43.496;3.710;2023-03-04T02:18:00;41.08;;;22.15;;
71730;SDS011;65964;43.496;3.710;2023-03-04T02:25:26;38.35;;;21.92;;
71730;SDS011;65964;43.496;3.710;2023-03-04T02:27:53;38.85;;;22.42;;
71730;SDS011;65964;43.496;3.710;2023-03-04T02:30:20;41.15;;;22.17;;
71730;SDS011;65964;43.496;3.710;2023-03-04T02:32:46;38.22;;;21.65;;
71730;SDS011;65964;43.496;3.710;2023-03-04T02:35:15;40.85;;;22.48;;
71730;SDS011;65964;43.496;3.710;2023-03-04T02:37:42;37.72;;;21.15;;
71730;SDS011;65964;43.496;3.710;2023-03-04T02:40:15;38.78;;;21.88;;
71730;SDS011;65964;43.496;3.710;2023-03-04T02:42:42;40.08;;;22.15;;
71730;SDS011;65964;43.496;3.710;2023-03-04T02:47:54;44.08;;;23.25;;
71730;SDS011;65964;43.496;3.710;2023-03-04T02:50:20;37.40;;;21.40;;
71730;SDS011;65964;43.496;3.710;2023-03-04T02:52:46;39.35;;;21.23;;
71730;SDS011;65964;43.496;3.710;2023-03-04T02:55:12;43.20;;;22.17;;
71730;SDS011;65964;43.496;3.710;2023-03-04T02:57:38;41.05;;;22.42;;
71730;SDS011;65964;43.496;3.710;2023-03-04T03:00:04;41.35;;;21.50;;
71730;SDS011;65964;43.496;3.710;2023-03-04T03:02:30;41.25;;;22.67;;
71730;SDS011;65964;43.496;3.710;2023-03-04T03:04:56;37.50;;;21.38;;
71730;SDS011;65964;43.496;3.710;2023-03-04T03:07:22;41.20;;;22.52;;
71730;SDS011;65964;43.496;3.710;2023-03-04T03:09:48;40.45;;;21.70;;
71730;SDS011;65964;43.496;3.710;2023-03-04T03:12:14;40.90;;;23.05;;
71730;SDS011;65964;43.496;3.710;2023-03-04T03:14:40;45.38;;;23.70;;
71730;SDS011;65964;43.496;3.710;2023-03-04T03:17:06;42.90;;;22.95;;
71730;SDS011;65964;43.496;3.710;2023-03-04T03:19:32;40.85;;;22.98;;
71730;SDS011;65964;43.496;3.710;2023-03-04T03:21:59;40.65;;;22.77;;
71730;SDS011;65964;43.496;3.710;2023-03-04T03:24:25;39.83;;;23.00;;
71730;SDS011;65964;43.496;3.710;2023-03-04T03:26:51;41.22;;;22.70;;
71730;SDS011;65964;43.496;3.710;2023-03-04T03:29:17;38.67;;;22.02;;
71730;SDS011;65964;43.496;3.710;2023-03-04T03:31:43;42.55;;;21.77;;
71730;SDS011;65964;43.496;3.710;2023-03-04T03:34:09;43.47;;;23.48;;
71730;SDS011;65964;43.496;3.710;2023-03-04T03:36:35;38.28;;;21.70;;
71730;SDS011;65964;43.496;3.710;2023-03-04T03:39:01;39.83;;;22.48;;
71730;SDS011;65964;43.496;3.710;2023-03-04T03:41:27;39.88;;;22.60;;
71730;SDS011;65964;43.496;3.710;2023-03-04T03:43:53;44.80;;;23.30;;
71730;SDS011;65964;43.496;3.710;2023-03-04T03:46:19;41.80;;;23.13;;
71730;SDS011;65964;43.496;3.710;2023-03-04T03:48:45;42.20;;;22.20;;
71730;SDS011;65964;43.496;3.710;2023-03-04T03:51:11;40.33;;;22.02;;
71730;SDS011;65964;43.496;3.710;2023-03-04T03:53:37;42.15;;;23.20;;
71730;SDS011;65964;43.496;3.710;2023-03-04T03:56:03;40.30;;;22.50;;
71730;SDS011;65964;43.496;3.710;2023-03-04T03:58:29;43.35;;;22.73;;
71730;SDS011;65964;43.496;3.710;2023-03-04T04:00:55;41.45;;;23.30;;
71730;SDS011;65964;43.496;3.710;2023-03-04T04:03:21;42.95;;;23.52;;
71730;SDS011;65964;43.496;3.710;2023-03-04T04:05:47;42.30;;;22.88;;
71730;SDS011;65964;43.496;3.710;2023-03-04T04:08:14;39.85;;;22.80;;
71730;SDS011;65964;43.496;3.710;2023-03-04T04:10:40;39.70;;;22.30;;
71730;SDS011;65964;43.496;3.710;2023-03-04T04:13:06;40.63;;;22.55;;
71730;SDS011;65964;43.496;3.710;2023-03-04T04:15:33;46.70;;;23.55;;
71730;SDS011;65964;43.496;3.710;2023-03-04T04:17:59;42.50;;;22.52;;
71730;SDS011;65964;43.496;3.710;2023-03-04T04:20:25;43.63;;;23.67;;
71730;SDS011;65964;43.496;3.710;2023-03-04T04:22:51;40.83;;;21.90;;
71730;SDS011;65964;43.496;3.710;2023-03-04T04:25:17;43.00;;;22.63;;
71730;SDS011;65964;43.496;3.710;2023-03-04T04:27:43;42.08;;;23.30;;
71730;SDS011;65964;43.496;3.710;2023-03-04T04:30:09;41.95;;;23.33;;
71730;SDS011;65964;43.496;3.710;2023-03-04T04:32:35;37.83;;;22.33;;
71730;SDS011;65964;43.496;3.710;2023-03-04T04:35:01;43.97;;;23.90;;
71730;SDS011;65964;43.496;3.710;2023-03-04T04:37:27;41.17;;;23.05;;
71730;SDS011;65964;43.496;3.710;2023-03-04T04:39:53;41.90;;;22.67;;
71730;SDS011;65964;43.496;3.710;2023-03-04T04:42:19;42.67;;;23.08;;
71730;SDS011;65964;43.496;3.710;2023-03-04T04:44:46;40.90;;;23.75;;
71730;SDS011;65964;43.496;3.710;2023-03-04T04:47:12;43.92;;;23.55;;
71730;SDS011;65964;43.496;3.710;2023-03-04T04:49:38;40.95;;;22.77;;
71730;SDS011;65964;43.496;3.710;2023-03-04T04:52:04;43.17;;;24.42;;
71730;SDS011;65964;43.496;3.710;2023-03-04T04:54:30;43.80;;;23.67;;
71730;SDS011;65964;43.496;3.710;2023-03-04T04:56:56;44.70;;;23.58;;
71730;SDS011;65964;43.496;3.710;2023-03-04T04:59:22;42.75;;;23.48;;
71730;SDS011;65964;43.496;3.710;2023-03-04T05:01:48;43.47;;;23.30;;
71730;SDS011;65964;43.496;3.710;2023-03-04T05:04:14;43.88;;;22.77;;
71730;SDS011;65964;43.496;3.710;2023-03-04T05:06:40;44.42;;;22.58;;
71730;SDS011;65964;43.496;3.710;2023-03-04T05:09:06;46.25;;;23.75;;
71730;SDS011;65964;43.496;3.710;2023-03-04T05:11:32;43.13;;;23.40;;
71730;SDS011;65964;43.496;3.710;2023-03-04T05:13:58;41.15;;;22.52;;
71730;SDS011;65964;43.496;3.710;2023-03-04T05:16:24;44.50;;;22.88;;
71730;SDS011;65964;43.496;3.710;2023-03-04T05:18:50;42.83;;;23.27;;
71730;SDS011;65964;43.496;3.710;2023-03-04T05:21:16;42.75;;;22.48;;
71730;SDS011;65964;43.496;3.710;2023-03-04T05:23:42;43.40;;;23.02;;
71730;SDS011;65964;43.496;3.710;2023-03-04T05:26:10;43.30;;;23.02;;
71730;SDS011;65964;43.496;3.710;2023-03-04T05:28:37;44.38;;;22.88;;
71730;SDS011;65964;43.496;3.710;2023-03-04T05:31:03;44.35;;;23.50;;
71730;SDS011;65964;43.496;3.710;2023-03-04T05:33:29;42.13;;;22.65;;
71730;SDS011;65964;43.496;3.710;2023-03-04T05:35:56;42.67;;;22.75;;
71730;SDS011;65964;43.496;3.710;2023-03-04T05:38:22;46.88;;;26.27;;
71730;SDS011;65964;43.496;3.710;2023-03-04T05:40:48;45.45;;;24.48;;
71730;SDS011;65964;43.496;3.710;2023-03-04T05:43:14;44.08;;;23.13;;
71730;SDS011;65964;43.496;3.710;2023-03-04T05:45:41;44.30;;;23.52;;
71730;SDS011;65964;43.496;3.710;2023-03-04T05:48:07;42.80;;;23.95;;
71730;SDS011;65964;43.496;3.710;2023-03-04T05:50:33;44.90;;;23.55;;
71730;SDS011;65964;43.496;3.710;2023-03-04T05:53:00;44.95;;;23.95;;
71730;SDS011;65964;43.496;3.710;2023-03-04T05:55:26;47.80;;;24.60;;
71730;SDS011;65964;43.496;3.710;2023-03-04T05:57:53;44.03;;;23.02;;
71730;SDS011;65964;43.496;3.710;2023-03-04T06:00:20;45.88;;;24.92;;
71730;SDS011;65964;43.496;3.710;2023-03-04T06:02:45;42.70;;;22.92;;
71730;SDS011;65964;43.496;3.710;2023-03-04T06:05:12;44.45;;;23.10;;
71730;SDS011;65964;43.496;3.710;2023-03-04T06:07:39;47.72;;;24.08;;
71730;SDS011;65964;43.496;3.710;2023-03-04T06:10:07;46.72;;;24.63;;
71730;SDS011;65964;43.496;3.710;2023-03-04T06:12:33;44.83;;;24.63;;
71730;SDS011;65964;43.496;3.710;2023-03-04T06:14:59;48.45;;;24.35;;
71730;SDS011;65964;43.496;3.710;2023-03-04T06:17:27;44.70;;;23.55;;
71730;SDS011;65964;43.496;3.710;2023-03-04T06:19:53;43.72;;;23.38;;
71730;SDS011;65964;43.496;3.710;2023-03-04T06:22:19;48.10;;;25.63;;
71730;SDS011;65964;43.496;3.710;2023-03-04T06:24:45;47.85;;;25.80;;
71730;SDS011;65964;43.496;3.710;2023-03-04T06:27:11;45.08;;;23.95;;
71730;SDS011;65964;43.496;3.710;2023-03-04T06:29:37;44.97;;;23.55;;
71730;SDS011;65964;43.496;3.710;2023-03-04T06:32:04;42.55;;;22.92;;
71730;SDS011;65964;43.496;3.710;2023-03-04T06:34:30;45.95;;;24.23;;
71730;SDS011;65964;43.496;3.710;2023-03-04T06:36:57;45.28;;;24.73;;
71730;SDS011;65964;43.496;3.710;2023-03-04T06:39:23;49.58;;;26.95;;
71730;SDS011;65964;43.496;3.710;2023-03-04T06:41:49;44.72;;;24.35;;
71730;SDS011;65964;43.496;3.710;2023-03-04T06:44:15;47.92;;;23.80;;
71730;SDS011;65964;43.496;3.710;2023-03-04T06:46:41;51.03;;;24.15;;
71730;SDS011;65964;43.496;3.710;2023-03-04T06:49:08;50.72;;;25.30;;
71730;SDS011;65964;43.496;3.710;2023-03-04T06:51:34;46.90;;;24.38;;
71730;SDS011;65964;43.496;3.710;2023-03-04T06:54:00;46.50;;;25.13;;
71730;SDS011;65964;43.496;3.710;2023-03-04T06:56:26;49.50;;;23.80;;
71730;SDS011;65964;43.496;3.710;2023-03-04T06:58:52;44.70;;;23.50;;
71730;SDS011;65964;43.496;3.710;2023-03-04T07:01:22;46.15;;;23.95;;
71730;SDS011;65964;43.496;3.710;2023-03-04T07:03:48;42.90;;;23.92;;
71730;SDS011;65964;43.496;3.710;2023-03-04T07:06:15;45.30;;;23.98;;
71730;SDS011;65964;43.496;3.710;2023-03-04T07:08:42;42.60;;;23.45;;
71730;SDS011;65964;43.496;3.710;2023-03-04T07:11:08;42.80;;;23.08;;
71730;SDS011;65964;43.496;3.710;2023-03-04T07:13:34;44.05;;;23.75;;
71730;SDS011;65964;43.496;3.710;2023-03-04T07:16:05;49.17;;;27.48;;
71730;SDS011;65964;43.496;3.710;2023-03-04T07:18:32;46.25;;;24.88;;
71730;SDS011;65964;43.496;3.710;2023-03-04T07:20:58;43.85;;;24.55;;
71730;SDS011;65964;43.496;3.710;2023-03-04T07:23:24;41.67;;;22.98;;
71730;SDS011;65964;43.496;3.710;2023-03-04T07:25:50;45.22;;;23.75;;
71730;SDS011;65964;43.496;3.710;2023-03-04T07:28:16;42.10;;;22.85;;
71730;SDS011;65964;43.496;3.710;2023-03-04T07:30:42;43.58;;;24.63;;
71730;SDS011;65964;43.496;3.710;2023-03-04T07:33:08;45.88;;;24.20;;
71730;SDS011;65964;43.496;3.710;2023-03-04T07:35:34;43.47;;;24.13;;
71730;SDS011;65964;43.496;3.710;2023-03-04T07:38:00;43.70;;;24.67;;
71730;SDS011;65964;43.496;3.710;2023-03-04T07:40:26;45.10;;;24.30;;
71730;SDS011;65964;43.496;3.710;2023-03-04T07:42:53;45.45;;;25.30;;
71730;SDS011;65964;43.496;3.710;2023-03-04T07:45:20;45.42;;;23.75;;
71730;SDS011;65964;43.496;3.710;2023-03-04T07:47:46;45.78;;;24.52;;
71730;SDS011;65964;43.496;3.710;2023-03-04T07:50:12;44.83;;;24.08;;
71730;SDS011;65964;43.496;3.710;2023-03-04T07:52:42;41.33;;;23.70;;
71730;SDS011;65964;43.496;3.710;2023-03-04T07:55:08;40.10;;;23.13;;
71730;SDS011;65964;43.496;3.710;2023-03-04T07:57:37;47.30;;;24.38;;
71730;SDS011;65964;43.496;3.710;2023-03-04T08:00:03;40.67;;;23.95;;
71730;SDS011;65964;43.496;3.710;2023-03-04T08:02:29;39.55;;;23.92;;
71730;SDS011;65964;43.496;3.710;2023-03-04T08:04:55;38.95;;;23.73;;
71730;SDS011;65964;43.496;3.710;2023-03-04T08:07:22;36.25;;;22.77;;
71730;SDS011;65964;43.496;3.710;2023-03-04T08:09:48;42.67;;;23.63;;
71730;SDS011;65964;43.496;3.710;2023-03-04T08:12:14;37.42;;;23.75;;
71730;SDS011;65964;43.496;3.710;2023-03-04T08:14:40;36.38;;;23.92;;
71730;SDS011;65964;43.496;3.710;2023-03-04T08:17:06;36.35;;;22.55;;
71730;SDS011;65964;43.496;3.710;2023-03-04T08:19:33;35.40;;;23.00;;
71730;SDS011;65964;43.496;3.710;2023-03-04T08:21:59;33.45;;;21.92;;
71730;SDS011;65964;43.496;3.710;2023-03-04T08:24:26;37.58;;;22.70;;
71730;SDS011;65964;43.496;3.710;2023-03-04T08:26:52;34.40;;;22.50;;
71730;SDS011;65964;43.496;3.710;2023-03-04T08:29:19;35.92;;;21.77;;
71730;SDS011;65964;43.496;3.710;2023-03-04T08:31:47;32.60;;;22.38;;
71730;SDS011;65964;43.496;3.710;2023-03-04T08:34:13;35.00;;;22.20;;
71730;SDS011;65964;43.496;3.710;2023-03-04T08:36:39;33.53;;;21.90;;
71730;SDS011;65964;43.496;3.710;2023-03-04T08:39:10;36.63;;;22.65;;
71730;SDS011;65964;43.496;3.710;2023-03-04T08:41:36;32.90;;;22.40;;
71730;SDS011;65964;43.496;3.710;2023-03-04T08:44:02;30.63;;;21.50;;
71730;SDS011;65964;43.496;3.710;2023-03-04T08:46:28;34.50;;;21.90;;
71730;SDS011;65964;43.496;3.710;2023-03-04T08:48:54;34.42;;;20.77;;
71730;SDS011;65964;43.496;3.710;2023-03-04T08:51:21;34.28;;;21.30;;
71730;SDS011;65964;43.496;3.710;2023-03-04T08:53:47;55.08;;;24.08;;
71730;SDS011;65964;43.496;3.710;2023-03-04T08:56:13;42.35;;;21.58;;
71730;SDS011;65964;43.496;3.710;2023-03-04T08:58:40;34.40;;;21.13;;
71730;SDS011;65964;43.496;3.710;2023-03-04T09:01:07;32.33;;;20.95;;
71730;SDS011;65964;43.496;3.710;2023-03-04T09:03:33;35.40;;;21.73;;
71730;SDS011;65964;43.496;3.710;2023-03-04T09:06:00;30.17;;;21.65;;
71730;SDS011;65964;43.496;3.710;2023-03-04T09:08:26;30.20;;;20.67;;
71730;SDS011;65964;43.496;3.710;2023-03-04T09:10:53;31.83;;;22.50;;
71730;SDS011;65964;43.496;3.710;2023-03-04T09:13:21;35.50;;;22.05;;
71730;SDS011;65964;43.496;3.710;2023-03-04T09:15:48;30.05;;;20.35;;
71730;SDS011;65964;43.496;3.710;2023-03-04T09:18:15;28.02;;;20.10;;
71730;SDS011;65964;43.496;3.710;2023-03-04T09:20:41;29.70;;;20.25;;
71730;SDS011;65964;43.496;3.710;2023-03-04T09:23:08;30.42;;;20.38;;
71730;SDS011;65964;43.496;3.710;2023-03-04T09:25:35;28.58;;;19.95;;
71730;SDS011;65964;43.496;3.710;2023-03-04T09:28:01;38.05;;;22.00;;
71730;SDS011;65964;43.496;3.710;2023-03-04T09:30:27;28.60;;;20.02;;
71730;SDS011;65964;43.496;3.710;2023-03-04T09:32:53;28.90;;;19.88;;
71730;SDS011;65964;43.496;3.710;2023-03-04T09:35:19;29.88;;;20.17;;
71730;SDS011;65964;43.496;3.710;2023-03-04T09:37:45;27.05;;;19.70;;
71730;SDS011;65964;43.496;3.710;2023-03-04T09:40:19;26.67;;;18.90;;
71730;SDS011;65964;43.496;3.710;2023-03-04T09:42:47;27.25;;;19.15;;
71730;SDS011;65964;43.496;3.710;2023-03-04T09:45:21;27.98;;;19.83;;
71730;SDS011;65964;43.496;3.710;2023-03-04T09:47:49;30.02;;;19.17;;
71730;SDS011;65964;43.496;3.710;2023-03-04T09:50:16;29.25;;;19.88;;
71730;SDS011;65964;43.496;3.710;2023-03-04T09:52:53;26.50;;;19.08;;
71730;SDS011;65964;43.496;3.710;2023-03-04T09:55:30;29.52;;;19.83;;
71730;SDS011;65964;43.496;3.710;2023-03-04T09:58:04;30.52;;;20.23;;
71730;SDS011;65964;43.496;3.710;2023-03-04T10:00:34;28.17;;;19.80;;
71730;SDS011;65964;43.496;3.710;2023-03-04T10:05:54;32.03;;;20.50;;
71730;SDS011;65964;43.496;3.710;2023-03-04T10:13:32;28.95;;;18.27;;
71730;SDS011;65964;43.496;3.710;2023-03-04T10:16:01;28.00;;;18.83;;
71730;SDS011;65964;43.496;3.710;2023-03-04T10:18:43;32.08;;;19.52;;
71730;SDS011;65964;43.496;3.710;2023-03-04T10:23:38;29.58;;;17.85;;
71730;SDS011;65964;43.496;3.710;2023-03-04T10:26:12;29.10;;;18.27;;
71730;SDS011;65964;43.496;3.710;2023-03-04T10:28:39;27.20;;;18.63;;
71730;SDS011;65964;43.496;3.710;2023-03-04T10:31:26;31.48;;;19.42;;
71730;SDS011;65964;43.496;3.710;2023-03-04T10:33:55;30.60;;;18.00;;
71730;SDS011;65964;43.496;3.710;2023-03-04T10:39:18;29.40;;;18.33;;
71730;SDS011;65964;43.496;3.710;2023-03-04T10:41:43;29.02;;;17.63;;
71730;SDS011;65964;43.496;3.710;2023-03-04T10:44:16;27.38;;;18.20;;
71730;SDS011;65964;43.496;3.710;2023-03-04T10:46:46;28.83;;;17.90;;
71730;SDS011;65964;43.496;3.710;2023-03-04T10:49:13;26.00;;;17.13;;
71730;SDS011;65964;43.496;3.710;2023-03-04T10:51:41;28.45;;;18.23;;
71730;SDS011;65964;43.496;3.710;2023-03-04T10:54:24;28.70;;;17.95;;
71730;SDS011;65964;43.496;3.710;2023-03-04T10:56:58;29.55;;;18.50;;
71730;SDS011;65964;43.496;3.710;2023-03-04T11:01:52;31.60;;;18.23;;
71730;SDS011;65964;43.496;3.710;2023-03-04T11:04:18;29.23;;;17.63;;
71730;SDS011;65964;43.496;3.710;2023-03-04T11:06:44;29.85;;;18.02;;
71730;SDS011;65964;43.496;3.710;2023-03-04T11:09:21;27.70;;;17.02;;
71730;SDS011;65964;43.496;3.710;2023-03-04T11:11:48;30.92;;;17.50;;
71730;SDS011;65964;43.496;3.710;2023-03-04T11:14:18;27.75;;;18.10;;
71730;SDS011;65964;43.496;3.710;2023-03-04T11:16:57;27.30;;;17.60;;
71730;SDS011;65964;43.496;3.710;2023-03-04T11:19:27;29.77;;;17.55;;
71730;SDS011;65964;43.496;3.710;2023-03-04T11:21:54;29.48;;;17.75;;
71730;SDS011;65964;43.496;3.710;2023-03-04T11:24:22;28.45;;;17.55;;
71730;SDS011;65964;43.496;3.710;2023-03-04T11:27:12;29.55;;;17.55;;
71730;SDS011;65964;43.496;3.710;2023-03-04T11:32:10;25.67;;;17.30;;
71730;SDS011;65964;43.496;3.710;2023-03-04T11:34:43;27.95;;;17.35;;
71730;SDS011;65964;43.496;3.710;2023-03-04T11:37:20;29.20;;;18.83;;
71730;SDS011;65964;43.496;3.710;2023-03-04T11:44:55;29.48;;;17.25;;
71730;SDS011;65964;43.496;3.710;2023-03-04T12:06:04;28.00;;;17.08;;
71730;SDS011;65964;43.496;3.710;2023-03-04T12:11:18;26.52;;;15.98;;
71730;SDS011;65964;43.496;3.710;2023-03-04T12:14:08;26.83;;;15.80;;
71730;SDS011;65964;43.496;3.710;2023-03-04T12:19:26;28.67;;;17.67;;
71730;SDS011;65964;43.496;3.710;2023-03-04T12:24:40;25.70;;;16.15;;
71730;SDS011;65964;43.496;3.710;2023-03-04T12:27:16;29.10;;;18.58;;
71730;SDS011;65964;43.496;3.710;2023-03-04T12:29:56;26.77;;;18.60;;
71730;SDS011;65964;43.496;3.710;2023-03-04T12:37:47;26.20;;;16.37;;
71730;SDS011;65964;43.496;3.710;2023-03-04T12:48:26;26.80;;;17.40;;
71730;SDS011;65964;43.496;3.710;2023-03-04T12:51:07;30.77;;;16.48;;
71730;SDS011;65964;43.496;3.710;2023-03-04T12:56:24;30.23;;;21.42;;
71730;SDS011;65964;43.496;3.710;2023-03-04T12:58:51;28.13;;;18.08;;
71730;SDS011;65964;43.496;3.710;2023-03-04T13:01:20;27.55;;;17.00;;
71730;SDS011;65964;43.496;3.710;2023-03-04T13:14:01;25.27;;;15.85;;
71730;SDS011;65964;43.496;3.710;2023-03-04T13:18:57;26.95;;;17.13;;
71730;SDS011;65964;43.496;3.710;2023-03-04T13:21:24;28.30;;;17.25;;
71730;SDS011;65964;43.496;3.710;2023-03-04T13:23:51;25.60;;;16.23;;
71730;SDS011;65964;43.496;3.710;2023-03-04T13:26:18;26.00;;;17.35;;
71730;SDS011;65964;43.496;3.710;2023-03-04T13:28:46;30.05;;;17.15;;
71730;SDS011;65964;43.496;3.710;2023-03-04T13:31:20;25.42;;;17.35;;
71730;SDS011;65964;43.496;3.710;2023-03-04T13:33:51;26.08;;;17.40;;
71730;SDS011;65964;43.496;3.710;2023-03-04T13:36:31;30.67;;;17.60;;
71730;SDS011;65964;43.496;3.710;2023-03-04T13:39:02;28.42;;;17.58;;
71730;SDS011;65964;43.496;3.710;2023-03-04T13:41:30;30.33;;;17.58;;
71730;SDS011;65964;43.496;3.710;2023-03-04T13:44:00;29.05;;;17.02;;
71730;SDS011;65964;43.496;3.710;2023-03-04T13:46:45;26.08;;;16.73;;
71730;SDS011;65964;43.496;3.710;2023-03-04T13:49:29;28.58;;;16.60;;
71730;SDS011;65964;43.496;3.710;2023-03-04T13:52:35;27.75;;;18.45;;
71730;SDS011;65964;43.496;3.710;2023-03-04T13:54:41;29.08;;;17.25;;
71730;SDS011;65964;43.496;3.710;2023-03-04T13:57:15;26.35;;;17.02;;
71730;SDS011;65964;43.496;3.710;2023-03-04T13:59:43;24.37;;;16.07;;
71730;SDS011;65964;43.496;3.710;2023-03-04T14:04:36;29.50;;;19.45;;
71730;SDS011;65964;43.496;3.710;2023-03-04T14:07:24;33.55;;;20.33;;
71730;SDS011;65964;43.496;3.710;2023-03-04T14:10:31;31.75;;;18.27;;
71730;SDS011;65964;43.496;3.710;2023-03-04T14:12:44;91.10;;;57.13;;
71730;SDS011;65964;43.496;3.710;2023-03-04T14:15:21;41.38;;;27.15;;
71730;SDS011;65964;43.496;3.710;2023-03-04T14:17:49;31.60;;;20.60;;
71730;SDS011;65964;43.496;3.710;2023-03-04T14:22:48;33.42;;;19.45;;
71730;SDS011;65964;43.496;3.710;2023-03-04T14:27:46;26.05;;;17.85;;
71730;SDS011;65964;43.496;3.710;2023-03-04T14:30:23;31.48;;;19.65;;
71730;SDS011;65964;43.496;3.710;2023-03-04T14:32:50;28.85;;;19.00;;
71730;SDS011;65964;43.496;3.710;2023-03-04T14:35:21;31.25;;;18.52;;
71730;SDS011;65964;43.496;3.710;2023-03-04T14:37:57;30.50;;;19.45;;
71730;SDS011;65964;43.496;3.710;2023-03-04T14:40:25;32.22;;;19.40;;
71730;SDS011;65964;43.496;3.710;2023-03-04T14:43:03;29.40;;;18.75;;
71730;SDS011;65964;43.496;3.710;2023-03-04T14:45:31;30.95;;;18.58;;
71730;SDS011;65964;43.496;3.710;2023-03-04T14:47:59;32.08;;;18.90;;
71730;SDS011;65964;43.496;3.710;2023-03-04T14:50:26;30.92;;;19.15;;
71730;SDS011;65964;43.496;3.710;2023-03-04T14:55:33;37.65;;;19.65;;
71730;SDS011;65964;43.496;3.710;2023-03-04T15:00:35;30.42;;;19.40;;
71730;SDS011;65964;43.496;3.710;2023-03-04T15:03:04;30.65;;;19.60;;
71730;SDS011;65964;43.496;3.710;2023-03-04T15:05:33;30.45;;;19.80;;
71730;SDS011;65964;43.496;3.710;2023-03-04T15:08:02;32.30;;;19.52;;
71730;SDS011;65964;43.496;3.710;2023-03-04T15:10:35;28.80;;;18.55;;
71730;SDS011;65964;43.496;3.710;2023-03-04T15:13:03;32.30;;;19.83;;
71730;SDS011;65964;43.496;3.710;2023-03-04T15:15:34;30.75;;;19.58;;
71730;SDS011;65964;43.496;3.710;2023-03-04T15:18:02;30.23;;;19.77;;
71730;SDS011;65964;43.496;3.710;2023-03-04T15:20:29;32.22;;;19.33;;
71730;SDS011;65964;43.496;3.710;2023-03-04T15:23:02;32.35;;;20.38;;
71730;SDS011;65964;43.496;3.710;2023-03-04T15:25:31;33.13;;;19.27;;
71730;SDS011;65964;43.496;3.710;2023-03-04T15:27:57;30.35;;;19.88;;
71730;SDS011;65964;43.496;3.710;2023-03-04T15:30:27;29.48;;;19.48;;
71730;SDS011;65964;43.496;3.710;2023-03-04T15:32:57;34.75;;;21.13;;
71730;SDS011;65964;43.496;3.710;2023-03-04T15:35:24;30.77;;;19.35;;
71730;SDS011;65964;43.496;3.710;2023-03-04T15:37:52;35.03;;;20.48;;
71730;SDS011;65964;43.496;3.710;2023-03-04T15:42:44;34.03;;;20.77;;
71730;SDS011;65964;43.496;3.710;2023-03-04T15:45:24;30.65;;;20.08;;
71730;SDS011;65964;43.496;3.710;2023-03-04T15:47:50;31.58;;;19.25;;
71730;SDS011;65964;43.496;3.710;2023-03-04T15:50:17;33.92;;;19.80;;
71730;SDS011;65964;43.496;3.710;2023-03-04T15:52:43;30.48;;;19.27;;
71730;SDS011;65964;43.496;3.710;2023-03-04T15:55:16;32.70;;;20.08;;
71730;SDS011;65964;43.496;3.710;2023-03-04T15:57:43;31.48;;;19.92;;
71730;SDS011;65964;43.496;3.710;2023-03-04T16:00:10;29.50;;;18.50;;
71730;SDS011;65964;43.496;3.710;2023-03-04T16:02:37;32.67;;;20.52;;
71730;SDS011;65964;43.496;3.710;2023-03-04T16:05:03;31.98;;;20.42;;
71730;SDS011;65964;43.496;3.710;2023-03-04T16:07:29;30.40;;;18.80;;